Time;durP1;ratioP1;P1;durP2;ratioP2;P2;SDS_P1;SDS_P2;PMS_P1;PMS_P2;Temp;Humidity;BMP_temperature;BMP_pressure;BME280_temperature;BME280_humidity;BME280_pressure;Samples;Min_cycle;Max_cycle;Signal;HPM_P1;HPM_P2
2023/11/28 00:00:22;;;;;;;;;;;;;;;;;;5007211;28;19929;-80
2023/11/28 00:02:49;;;;;;;;;;;;;;;;;;4998981;28;20378;-80
2023/11/28 00:05:16;;;;;;;;;;;;;;;;;;4978470;28;19989;-78
2023/11/28 00:07:44;;;;;;;;;;;;;;;;;;5007584;28;19981;-76
2023/11/28 00:10:11;;;;;;;;;;;;;;;;;;4998420;28;19932;-77
2023/11/28 00:12:38;;;;;;;;;;;;;;;;;;4997246;28;19980;-78
2023/11/28 00:15:05;;;;;;;;;;;;;;;;;;4996414;28;19948;-78
2023/11/28 00:17:32;;;;;;;;;;;;;;;;;;5004119;28;19996;-77
2023/11/28 00:19:59;;;;;;;;;;;;;;;;;;4990690;28;19930;-78
2023/11/28 00:22:26;;;;;;;;;;;;;;;;;;5004351;28;19929;-77
2023/11/28 00:24:53;;;;;;;;;;;;;;;;;;5015946;28;19937;-79
2023/11/28 00:27:20;;;;;;;;;;;;;;;;;;4996847;28;19949;-77
2023/11/28 00:29:48;;;;;;;;;;;;;;;;;;4996834;28;20439;-77
2023/11/28 00:32:15;;;;;;;;;;;;;;;;;;4993410;28;19926;-82
2023/11/28 00:34:42;;;;;;;;;;;;;;;;;;4996173;28;20412;-79
2023/11/28 00:37:10;;;;;;;;;;;;;;;;;;5003188;28;19933;-81
2023/11/28 00:39:37;;;;;;;;;;;;;;;;;;5017329;28;20020;-81
2023/11/28 00:42:05;;;;;;;;;;;;;;;;;;5010143;28;19925;-78
2023/11/28 00:44:32;;;;;;;;;;;;;;;;;;5003769;28;19925;-77
2023/11/28 00:46:59;;;;;;;;;;;;;;;;;;4993710;28;19957;-81
2023/11/28 00:49:26;;;;;;;;;;;;;;;;;;4998146;28;19933;-79
2023/11/28 00:51:53;;;;;;;;;;;;;;;;;;4995663;28;19948;-81
2023/11/28 00:54:20;;;;;;;;;;;;;;;;;;4996982;28;19926;-81
2023/11/28 00:56:47;;;;;;;;;;;;;;;;;;4994428;28;19965;-80
2023/11/28 00:59:14;;;;;;;;;;;;;;;;;;4996110;28;19925;-78
2023/11/28 01:01:42;;;;;;;;;;;;;;;;;;4997422;28;19925;-78
2023/11/28 01:04:09;;;;;;;;;;;;;;;;;;4996995;28;19925;-76
2023/11/28 01:06:36;;;;;;;;;;;;;;;;;;4995476;28;19926;-82
2023/11/28 01:09:03;;;;;;;;;;;;;;;;;;4996223;28;19926;-79
2023/11/28 01:11:30;;;;;;;;;;;;;;;;;;4996277;28;19981;-79
2023/11/28 01:13:57;;;;;;;;;;;;;;;;;;5003482;28;19926;-76
2023/11/28 01:16:24;;;;;;;;;;;;;;;;;;4999416;28;19929;-77
2023/11/28 01:18:51;;;;;;;;;;;;;;;;;;5015323;28;20029;-75
2023/11/28 01:21:18;;;;;;;;;;;;;;;;;;5014289;28;19929;-77
2023/11/28 01:23:45;;;;;;;;;;;;;;;;;;5014829;28;19930;-75
2023/11/28 01:26:13;;;;;;;;;;;;;;;;;;5000444;28;19944;-76
2023/11/28 01:28:41;;;;;;;;;;;;;;;;;;4994530;28;19925;-76
2023/11/28 01:31:08;;;;;;;;;;;;;;;;;;4993663;28;19972;-77
2023/11/28 01:33:35;;;;;;;;;;;;;;;;;;4994374;28;19980;-75
2023/11/28 01:36:02;;;;;;;;;;;;;;;;;;4994705;28;19926;-75
2023/11/28 01:38:29;;;;;;;;;;;;;;;;;;4994743;28;19949;-76
2023/11/28 01:40:56;;;;;;;;;;;;;;;;;;4995074;28;19972;-77
2023/11/28 01:43:23;;;;;;;;;;;;;;;;;;4992530;28;19925;-77
2023/11/28 01:45:50;;;;;;;;;;;;;;;;;;4993772;28;19925;-75
2023/11/28 01:48:17;;;;;;;;;;;;;;;;;;4994929;28;20384;-75
2023/11/28 01:50:45;;;;;;;;;;;;;;;;;;4995328;28;19926;-76
2023/11/28 01:53:12;;;;;;;;;;;;;;;;;;5000892;28;20292;-74
2023/11/28 01:55:39;;;;;;;;;;;;;;;;;;5013640;28;19980;-74
2023/11/28 01:58:06;;;;;;;;;;;;;;;;;;4996715;28;20003;-75
2023/11/28 02:00:33;;;;;;;;;;;;;;;;;;4996547;28;19971;-75
2023/11/28 02:03:00;;;;;;;;;;;;;;;;;;4987848;28;19933;-75
2023/11/28 02:05:27;;;;;;;;;;;;;;;;;;4993788;28;19972;-75
2023/11/28 02:07:54;;;;;;;;;;;;;;;;;;4998253;28;20308;-77
2023/11/28 02:10:21;;;;;;;;;;;;;;;;;;5001157;28;19980;-76
2023/11/28 02:12:48;;;;;;;;;;;;;;;;;;4993784;28;19980;-75
2023/11/28 02:15:15;;;;;;;;;;;;;;;;;;4994019;28;19932;-77
2023/11/28 02:17:42;;;;;;;;;;;;;;;;;;4998153;28;19930;-75
2023/11/28 02:20:10;;;;;;;;;;;;;;;;;;4998659;28;19925;-77
2023/11/28 02:22:37;;;;;;;;;;;;;;;;;;5000506;28;19933;-75
2023/11/28 02:25:05;;;;;;;;;;;;;;;;;;5009303;28;20384;-75
2023/11/28 02:27:32;;;;;;;;;;;;;;;;;;5005972;28;19996;-78
2023/11/28 02:29:59;;;;;;;;;;;;;;;;;;4998561;28;20413;-78
2023/11/28 02:32:26;;;;;;;;;;;;;;;;;;4997756;28;20381;-80
2023/11/28 02:34:53;;;;;;;;;;;;;;;;;;4995987;28;19934;-76
2023/11/28 02:37:20;;;;;;;;;;;;;;;;;;5005113;28;20365;-80
2023/11/28 02:39:47;;;;;;;;;;;;;;;;;;5008277;28;19930;-76
2023/11/28 02:42:14;;;;;;;;;;;;;;;;;;4998358;28;19933;-78
2023/11/28 02:44:41;;;;;;;;;;;;;;;;;;4991838;28;19926;-78
2023/11/28 02:47:08;;;;;;;;;;;;;;;;;;4997989;28;20004;-77
2023/11/28 02:49:35;;;;;;;;;;;;;;;;;;4998772;28;19926;-78
2023/11/28 02:52:02;;;;;;;;;;;;;;;;;;5008464;28;19979;-79
2023/11/28 02:54:29;;;;;;;;;;;;;;;;;;4983043;28;19932;-80
2023/11/28 02:56:56;;;;;;;;;;;;;;;;;;4998250;28;19937;-79
2023/11/28 02:59:23;;;;;;;;;;;;;;;;;;4998229;28;20381;-77
2023/11/28 03:01:53;;;;;;;;;;;;;;;;;;4997351;28;19948;-78
2023/11/28 03:04:20;;;;;;;;;;;;;;;;;;4998645;28;19926;-78
2023/11/28 03:06:47;;;;;;;;;;;;;;;;;;4998170;28;19926;-80
2023/11/28 03:09:14;;;;;;;;;;;;;;;;;;5003686;28;20308;-82
2023/11/28 03:11:41;;;;;;;;;;;;;;;;;;4997317;28;20029;-78
2023/11/28 03:14:08;;;;;;;;;;;;;;;;;;4998805;28;20020;-77
2023/11/28 03:16:36;;;;;;;;;;;;;;;;;;4998168;28;19948;-77
2023/11/28 03:19:03;;;;;;;;;;;;;;;;;;4999694;28;20377;-79
2023/11/28 03:21:30;;;;;;;;;;;;;;;;;;5004776;28;19977;-81
2023/11/28 03:23:57;;;;;;;;;;;;;;;;;;4995153;28;19926;-77
2023/11/28 03:26:24;;;;;;;;;;;;;;;;;;4993829;28;19930;-79
2023/11/28 03:28:51;;;;;;;;;;;;;;;;;;4993703;28;19926;-79
2023/11/28 03:31:18;;;;;;;;;;;;;;;;;;4995850;28;19925;-76
2023/11/28 03:33:45;;;;;;;;;;;;;;;;;;4997244;28;19930;-80
2023/11/28 03:36:12;;;;;;;;;;;;;;;;;;4996964;28;19934;-80
2023/11/28 03:38:39;;;;;;;;;;;;;;;;;;4995918;28;20448;-80
2023/11/28 03:41:06;;;;;;;;;;;;;;;;;;4993545;28;19980;-81
2023/11/28 03:43:33;;;;;;;;;;;;;;;;;;4986238;28;19985;-78
2023/11/28 03:46:00;;;;;;;;;;;;;;;;;;4981415;28;19926;-82
2023/11/28 03:48:27;;;;;;;;;;;;;;;;;;4997374;28;19926;-78
2023/11/28 03:50:54;;;;;;;;;;;;;;;;;;4996990;28;20432;-76
2023/11/28 03:53:22;;;;;;;;;;;;;;;;;;4995174;28;19926;-76
2023/11/28 03:55:49;;;;;;;;;;;;;;;;;;4996744;28;19957;-75
2023/11/28 03:58:16;;;;;;;;;;;;;;;;;;4996234;28;20344;-78
2023/11/28 04:00:43;;;;;;;;;;;;;;;;;;4995865;28;19934;-77
2023/11/28 04:03:10;;;;;;;;;;;;;;;;;;5002589;28;19937;-76
2023/11/28 04:05:37;;;;;;;;;;;;;;;;;;5009591;28;19925;-76
2023/11/28 04:08:04;;;;;;;;;;;;;;;;;;4997675;28;19930;-77
2023/11/28 04:10:31;;;;;;;;;;;;;;;;;;5009597;28;19996;-75
2023/11/28 04:12:58;;;;;;;;;;;;;;;;;;5015523;28;20447;-77
2023/11/28 04:15:25;;;;;;;;;;;;;;;;;;4995843;28;19929;-77
2023/11/28 04:17:53;;;;;;;;;;;;;;;;;;4993918;28;19933;-77
2023/11/28 04:20:20;;;;;;;;;;;;;;;;;;4997285;28;19933;-75
2023/11/28 04:22:46;;;;;;;;;;;;;;;;;;4997206;28;20377;-81
2023/11/28 04:25:13;;;;;;;;;;;;;;;;;;4996823;28;19980;-78
2023/11/28 04:27:41;;;;;;;;;;;;;;;;;;4994726;28;19934;-79
2023/11/28 04:30:08;;;;;;;;;;;;;;;;;;5001295;28;19926;-78
2023/11/28 04:32:35;;;;;;;;;;;;;;;;;;4995384;28;20286;-77
2023/11/28 04:35:02;;;;;;;;;;;;;;;;;;4991031;28;20020;-79
2023/11/28 04:37:29;;;;;;;;;;;;;;;;;;4995226;28;20025;-79
2023/11/28 04:39:56;;;;;;;;;;;;;;;;;;4995752;28;20392;-78
2023/11/28 04:42:24;;;;;;;;;;;;;;;;;;4997075;28;19933;-78
2023/11/28 04:44:51;;;;;;;;;;;;;;;;;;4996765;28;19925;-82
2023/11/28 04:47:18;;;;;;;;;;;;;;;;;;4996342;28;19930;-78
2023/11/28 04:49:45;;;;;;;;;;;;;;;;;;5010556;28;19980;-79
2023/11/28 04:52:12;;;;;;;;;;;;;;;;;;5000127;28;19949;-81
2023/11/28 04:54:39;;;;;;;;;;;;;;;;;;5003808;28;19926;-78
2023/11/28 04:57:06;;;;;;;;;;;;;;;;;;4993404;28;19952;-77
2023/11/28 04:59:33;;;;;;;;;;;;;;;;;;4997525;28;20301;-78
2023/11/28 05:02:00;;;;;;;;;;;;;;;;;;4981339;28;19930;-75
2023/11/28 05:04:27;;;;;;;;;;;;;;;;;;4995458;28;19926;-78
2023/11/28 05:06:54;;;;;;;;;;;;;;;;;;4993948;28;19980;-77
2023/11/28 05:09:21;;;;;;;;;;;;;;;;;;4995635;28;19931;-75
2023/11/28 05:11:48;;;;;;;;;;;;;;;;;;5014448;28;19932;-75
2023/11/28 05:14:15;;;;;;;;;;;;;;;;;;4996523;28;20341;-74
2023/11/28 05:16:42;;;;;;;;;;;;;;;;;;4993751;28;19930;-74
2023/11/28 05:19:09;;;;;;;;;;;;;;;;;;4995175;28;19925;-76
2023/11/28 05:21:36;;;;;;;;;;;;;;;;;;4995720;28;20397;-81
2023/11/28 05:24:03;;;;;;;;;;;;;;;;;;4997087;28;19926;-79
2023/11/28 05:26:30;;;;;;;;;;;;;;;;;;4994427;28;19933;-83
2023/11/28 05:28:57;;;;;;;;;;;;;;;;;;4987020;28;19926;-82
2023/11/28 05:31:24;;;;;;;;;;;;;;;;;;4994830;28;19926;-82
2023/11/28 05:33:51;;;;;;;;;;;;;;;;;;4996219;28;19926;-82
2023/11/28 05:36:18;;;;;;;;;;;;;;;;;;4995171;28;19973;-85
2023/11/28 05:38:46;;;;;;;;;;;;;;;;;;4996412;28;19926;-82
2023/11/28 05:41:13;;;;;;;;;;;;;;;;;;4995735;28;19973;-83
2023/11/28 05:43:40;;;;;;;;;;;;;;;;;;5005877;28;19949;-82
2023/11/28 05:46:07;;;;;;;;;;;;;;;;;;4999377;28;19926;-83
2023/11/28 05:48:34;;;;;;;;;;;;;;;;;;4996518;28;19980;-82
2023/11/28 05:51:01;;;;;;;;;;;;;;;;;;4993894;28;19961;-83
2023/11/28 05:53:28;;;;;;;;;;;;;;;;;;4994385;28;19933;-73
2023/11/28 05:55:55;;;;;;;;;;;;;;;;;;4992856;28;20400;-73
2023/11/28 05:58:22;;;;;;;;;;;;;;;;;;4992244;28;19973;-74
2023/11/28 06:00:49;;;;;;;;;;;;;;;;;;4980927;28;19926;-75
2023/11/28 06:03:16;;;;;;;;;;;;;;;;;;4992305;28;19968;-75
2023/11/28 06:05:43;;;;;;;;;;;;;;;;;;4990815;28;20288;-74
2023/11/28 06:08:11;;;;;;;;;;;;;;;;;;4993458;28;19926;-74
2023/11/28 06:10:38;;;;;;;;;;;;;;;;;;4993294;28;20289;-75
2023/11/28 06:13:06;;;;;;;;;;;;;;;;;;4993168;28;19980;-78
2023/11/28 06:15:33;;;;;;;;;;;;;;;;;;4993495;28;20336;-77
2023/11/28 06:18:00;;;;;;;;;;;;;;;;;;4979523;28;19927;-74
2023/11/28 06:20:27;;;;;;;;;;;;;;;;;;4988706;28;19934;-74
2023/11/28 06:22:53;;;;;;;;;;;;;;;;;;4993007;28;19957;-74
2023/11/28 06:25:21;;;;;;;;;;;;;;;;;;4992346;28;19926;-75
2023/11/28 06:27:48;;;;;;;;;;;;;;;;;;4992852;28;19926;-79
2023/11/28 06:30:15;;;;;;;;;;;;;;;;;;4992154;28;19925;-74
2023/11/28 06:32:42;;;;;;;;;;;;;;;;;;4993210;28;20439;-72
2023/11/28 06:35:10;;;;;;;;;;;;;;;;;;4984359;28;19980;-73
2023/11/28 06:37:38;;;;;;;;;;;;;;;;;;4988580;28;20020;-73
2023/11/28 06:40:05;;;;;;;;;;;;;;;;;;4982221;28;19948;-72
2023/11/28 06:42:32;;;;;;;;;;;;;;;;;;4989260;28;19972;-74
2023/11/28 06:44:59;;;;;;;;;;;;;;;;;;4992463;28;19977;-73
2023/11/28 06:47:26;;;;;;;;;;;;;;;;;;4990968;28;20308;-73
2023/11/28 06:49:57;;;;;;;;;;;;;;;;;;4981817;28;19930;-73
2023/11/28 06:52:24;;;;;;;;;;;;;;;;;;4991612;28;20310;-74
2023/11/28 06:54:51;;;;;;;;;;;;;;;;;;4993029;28;19977;-74
2023/11/28 06:57:18;;;;;;;;;;;;;;;;;;4991676;28;20307;-72
2023/11/28 06:59:45;;;;;;;;;;;;;;;;;;4991354;28;19993;-72
2023/11/28 07:02:12;;;;;;;;;;;;;;;;;;4990052;28;19993;-74
2023/11/28 07:04:39;;;;;;;;;;;;;;;;;;4994462;28;20189;-73
2023/11/28 07:07:06;;;;;;;;;;;;;;;;;;4976697;28;19930;-74
2023/11/28 07:09:34;;;;;;;;;;;;;;;;;;4990874;28;19933;-72
2023/11/28 07:12:01;;;;;;;;;;;;;;;;;;4996175;28;19926;-72
2023/11/28 07:14:28;;;;;;;;;;;;;;;;;;5001930;28;20359;-70
2023/11/28 07:16:55;;;;;;;;;;;;;;;;;;5000013;28;20207;-71
2023/11/28 07:19:22;;;;;;;;;;;;;;;;;;4997879;28;19926;-71
2023/11/28 07:21:49;;;;;;;;;;;;;;;;;;4995384;28;19959;-72
2023/11/28 07:24:16;;;;;;;;;;;;;;;;;;4992741;28;19941;-72
2023/11/28 07:26:43;;;;;;;;;;;;;;;;;;4985617;28;19925;-73
2023/11/28 07:29:12;;;;;;;;;;;;;;;;;;4992974;28;20408;-71
2023/11/28 07:31:39;;;;;;;;;;;;;;;;;;4986150;28;19930;-71
2023/11/28 07:34:06;;;;;;;;;;;;;;;;;;4978722;28;19941;-71
2023/11/28 07:36:33;;;;;;;;;;;;;;;;;;4985143;28;20409;-70
2023/11/28 07:39:00;;;;;;;;;;;;;;;;;;5038573;22;19932;-72
2023/11/28 07:41:27;;;;;;;;;;;;;;;;;;5017562;28;20316;-71
2023/11/28 07:43:54;;;;;;;;;;;;;;;;;;5011971;28;19979;-72
2023/11/28 07:46:23;;;;;;;;;;;;;;;;;;5002841;28;19973;-71
2023/11/28 07:48:50;;;;;;;;;;;;;;;;;;5005514;28;19965;-71
2023/11/28 07:51:17;;;;;;;;;;;;;;;;;;5008788;28;20454;-71
2023/11/28 07:53:44;;;;;;;;;;;;;;;;;;5008517;28;20383;-70
2023/11/28 07:56:11;;;;;;;;;;;;;;;;;;5012182;28;19925;-73
2023/11/28 07:58:38;;;;;;;;;;;;;;;;;;5010461;28;20450;-71
2023/11/28 08:01:05;;;;;;;;;;;;;;;;;;5010273;28;19934;-72
2023/11/28 08:03:32;;;;;;;;;;;;;;;;;;5010003;28;19988;-71
2023/11/28 08:05:59;;;;;;;;;;;;;;;;;;5006867;28;19925;-71
2023/11/28 08:08:26;;;;;;;;;;;;;;;;;;5006221;28;20308;-71
2023/11/28 08:10:54;;;;;;;;;;;;;;;;;;5006705;28;19936;-71
2023/11/28 08:13:21;;;;;;;;;;;;;;;;;;5014587;28;19933;-71
2023/11/28 08:15:48;;;;;;;;;;;;;;;;;;5006535;28;19933;-72
2023/11/28 08:18:15;;;;;;;;;;;;;;;;;;5004713;28;19972;-71
2023/11/28 08:20:42;;;;;;;;;;;;;;;;;;5021351;28;19934;-73
2023/11/28 08:23:09;;;;;;;;;;;;;;;;;;5011395;28;19972;-72
2023/11/28 08:25:36;;;;;;;;;;;;;;;;;;5014278;28;20432;-72
2023/11/28 08:28:03;;;;;;;;;;;;;;;;;;5026317;28;19925;-72
2023/11/28 08:30:31;;;;;;;;;;;;;;;;;;5031372;28;19937;-72
2023/11/28 08:32:58;;;;;;;;;;;;;;;;;;5015959;28;19971;-71
2023/11/28 08:35:25;;;;;;;;;;;;;;;;;;5015338;28;19976;-73
2023/11/28 08:37:52;;;;;;;;;;;;;;;;;;5007433;28;19980;-74
2023/11/28 08:40:19;;;;;;;;;;;;;;;;;;5020859;28;19933;-73
2023/11/28 08:42:46;;;;;;;;;;;;;;;;;;5030067;28;19925;-71
2023/11/28 08:45:13;;;;;;;;;;;;;;;;;;5017672;28;20007;-71
2023/11/28 08:47:40;;;;;;;;;;;;;;;;;;5032883;28;20010;-71
2023/11/28 08:50:07;;;;;;;;;;;;;;;;;;5017080;28;20450;-70
2023/11/28 08:52:34;;;;;;;;;;;;;;;;;;5012711;28;19960;-71
2023/11/28 08:55:01;;;;;;;;;;;;;;;;;;5025992;28;19925;-73
2023/11/28 08:57:33;;;;;;;;;;;;;;;;;;5024586;28;19926;-70
2023/11/28 09:00:00;;;;;;;;;;;;;;;;;;5012694;28;20020;-71
2023/11/28 09:02:27;;;;;;;;;;;;;;;;;;5012286;28;19932;-71
2023/11/28 09:04:54;;;;;;;;;;;;;;;;;;5010579;28;19925;-71
2023/11/28 09:07:21;;;;;;;;;;;;;;;;;;5015111;28;20358;-71
2023/11/28 09:09:48;;;;;;;;;;;;;;;;;;5008126;28;19991;-71
2023/11/28 09:12:15;;;;;;;;;;;;;;;;;;5010560;28;19929;-71
2023/11/28 09:14:42;;;;;;;;;;;;;;;;;;5011257;28;19933;-72
2023/11/28 09:17:09;;;;;;;;;;;;;;;;;;5001973;28;19933;-72
2023/11/28 09:19:37;;;;;;;;;;;;;;;;;;5010222;28;20307;-71
2023/11/28 09:22:05;;;;;;;;;;;;;;;;;;5009529;28;20091;-71
2023/11/28 09:24:32;;;;;;;;;;;;;;;;;;5006855;28;19925;-72
2023/11/28 09:26:59;;;;;;;;;;;;;;;;;;5002795;28;19926;-71
2023/11/28 09:29:26;;;;;;;;;;;;;;;;;;5009799;28;19948;-71
2023/11/28 09:31:54;;;;;;;;;;;;;;;;;;5008401;28;19983;-72
2023/11/28 09:34:22;;;;;;;;;;;;;;;;;;5006701;28;20344;-73
2023/11/28 09:36:49;;;;;;;;;;;;;;;;;;5105033;22;19933;-74
2023/11/28 09:39:16;;;;;;;;;;;;;;;;;;5009092;28;19935;-71
2023/11/28 09:41:43;;;;;;;;;;;;;;;;;;5008998;28;19925;-73
2023/11/28 09:44:10;;;;;;;;;;;;;;;;;;5009258;28;19972;-72
2023/11/28 09:46:39;;;;;;;;;;;;;;;;;;5013541;28;20221;-71
2023/11/28 09:49:06;;;;;;;;;;;;;;;;;;5009231;28;20454;-73
2023/11/28 09:51:33;;;;;;;;;;;;;;;;;;5007306;28;19988;-71
2023/11/28 09:54:00;;;;;;;;;;;;;;;;;;5008620;28;19926;-68
2023/11/28 09:56:27;;;;;;;;;;;;;;;;;;5011171;28;19925;-66
2023/11/28 09:58:54;;;;;;;;;;;;;;;;;;5008551;28;20458;-67
2023/11/28 10:01:21;;;;;;;;;;;;;;;;;;5004652;28;19925;-66
2023/11/28 10:03:48;;;;;;;;;;;;;;;;;;5005182;28;19987;-66
2023/11/28 10:06:15;;;;;;;;;;;;;;;;;;5009937;28;19930;-67
2023/11/28 10:08:42;;;;;;;;;;;;;;;;;;5011335;28;19932;-67
2023/11/28 10:11:12;;;;;;;;;;;;;;;;;;5007198;28;19948;-67
2023/11/28 10:13:39;;;;;;;;;;;;;;;;;;5002402;28;20015;-66
2023/11/28 10:16:06;;;;;;;;;;;;;;;;;;5022386;28;19925;-66
2023/11/28 10:18:33;;;;;;;;;;;;;;;;;;5019382;28;19926;-67
2023/11/28 10:21:01;;;;;;;;;;;;;;;;;;5015723;28;19926;-65
2023/11/28 10:23:28;;;;;;;;;;;;;;;;;;5028193;28;19979;-64
2023/11/28 10:25:55;;;;;;;;;;;;;;;;;;5027316;28;19926;-66
2023/11/28 10:28:23;;;;;;;;;;;;;;;;;;5009367;28;19932;-66
2023/11/28 10:30:50;;;;;;;;;;;;;;;;;;5006416;28;20352;-66
2023/11/28 10:33:18;;;;;;;;;;;;;;;;;;5014044;28;19930;-66
2023/11/28 10:35:45;;;;;;;;;;;;;;;;;;5009484;28;20268;-67
2023/11/28 10:38:13;;;;;;;;;;;;;;;;;;5008848;28;20012;-66
2023/11/28 10:40:40;;;;;;;;;;;;;;;;;;5011852;28;20571;-66
2023/11/28 10:43:07;;;;;;;;;;;;;;;;;;5028428;28;19952;-66
2023/11/28 10:45:34;;;;;;;;;;;;;;;;;;5018318;28;20064;-66
2023/11/28 10:48:01;;;;;;;;;;;;;;;;;;5013317;28;19932;-66
2023/11/28 10:50:28;;;;;;;;;;;;;;;;;;5013786;28;19929;-67
2023/11/28 10:52:55;;;;;;;;;;;;;;;;;;5005762;28;19930;-67
2023/11/28 10:55:22;;;;;;;;;;;;;;;;;;5000169;28;19999;-66
2023/11/28 10:57:49;;;;;;;;;;;;;;;;;;5006245;28;19957;-66
2023/11/28 11:00:16;;;;;;;;;;;;;;;;;;5018269;28;19925;-67
2023/11/28 11:02:43;;;;;;;;;;;;;;;;;;5012961;28;19932;-66
2023/11/28 11:05:10;;;;;;;;;;;;;;;;;;5011693;28;19980;-66
2023/11/28 11:07:37;;;;;;;;;;;;;;;;;;5012628;28;19925;-65
2023/11/28 11:10:09;;;;;;;;;;;;;;;;;;5009147;28;19932;-67
2023/11/28 11:12:37;;;;;;;;;;;;;;;;;;5007678;28;20013;-66
2023/11/28 11:15:04;;;;;;;;;;;;;;;;;;5004978;28;19957;-66
2023/11/28 11:17:32;;;;;;;;;;;;;;;;;;5010948;28;19926;-66
2023/11/28 11:20:00;;;;;;;;;;;;;;;;;;5008914;28;20007;-65
2023/11/28 11:24:57;;;;;;;;;;;;;;;;;;5029116;22;20316;-68
2023/11/28 11:27:25;;;;;;;;;;;;;;;;;;5027623;28;20097;-67
2023/11/28 11:29:52;;;;;;;;;;;;;;;;;;5028466;28;19925;-67
2023/11/28 11:32:19;;;;;;;;;;;;;;;;;;5030393;28;19933;-67
2023/11/28 11:34:47;;;;;;;;;;;;;;;;;;5030410;28;20423;-67
2023/11/28 11:37:14;;;;;;;;;;;;;;;;;;5030559;28;20300;-66
2023/11/28 11:39:41;;;;;;;;;;;;;;;;;;5028985;28;19940;-66
2023/11/28 11:42:09;;;;;;;;;;;;;;;;;;5024927;28;20300;-68
2023/11/28 11:44:36;;;;;;;;;;;;;;;;;;5025751;28;19925;-68
2023/11/28 11:47:03;;;;;;;;;;;;;;;;;;5019794;28;19940;-66
2023/11/28 11:49:30;;;;;;;;;;;;;;;;;;5014773;28;19925;-67
2023/11/28 11:51:57;;;;;;;;;;;;;;;;;;5023028;28;19951;-67
2023/11/28 11:54:24;;;;;;;;;;;;;;;;;;5028441;28;19929;-66
2023/11/28 11:56:51;;;;;;;;;;;;;;;;;;5031853;28;19925;-68
2023/11/28 11:59:20;;;;;;;;;;;;;;;;;;5031532;28;19936;-68
2023/11/28 12:01:47;;;;;;;;;;;;;;;;;;5025532;28;19957;-68
2023/11/28 12:04:16;;;;;;;;;;;;;;;;;;5025968;28;19975;-69
2023/11/28 12:06:43;;;;;;;;;;;;;;;;;;5033135;28;19932;-67
2023/11/28 12:09:11;;;;;;;;;;;;;;;;;;5053454;22;19925;-68
2023/11/28 12:11:38;;;;;;;;;;;;;;;;;;5012049;28;20021;-68
2023/11/28 12:14:05;;;;;;;;;;;;;;;;;;5013910;28;19948;-69
2023/11/28 12:16:32;;;;;;;;;;;;;;;;;;5016082;28;19926;-69
2023/11/28 12:18:59;;;;;;;;;;;;;;;;;;5004542;28;19964;-68
2023/11/28 12:21:26;;;;;;;;;;;;;;;;;;5011920;28;19941;-67
2023/11/28 12:23:53;;;;;;;;;;;;;;;;;;5030240;28;20534;-68
2023/11/28 12:26:20;;;;;;;;;;;;;;;;;;5023633;28;19932;-68
2023/11/28 12:28:47;;;;;;;;;;;;;;;;;;5027433;28;19972;-69
2023/11/28 12:31:14;;;;;;;;;;;;;;;;;;4998060;28;19934;-70
2023/11/28 12:33:41;;;;;;;;;;;;;;;;;;5019843;28;19933;-67
2023/11/28 12:36:08;;;;;;;;;;;;;;;;;;5004254;28;19988;-68
2023/11/28 12:38:39;;;;;;;;;;;;;;;;;;5003710;28;19969;-68
2023/11/28 12:41:06;;;;;;;;;;;;;;;;;;5017450;28;19956;-69
2023/11/28 12:43:33;;;;;;;;;;;;;;;;;;5010775;28;19995;-69
2023/11/28 12:46:00;;;;;;;;;;;;;;;;;;5011013;28;19973;-70
2023/11/28 12:48:27;;;;;;;;;;;;;;;;;;5019217;28;20000;-69
2023/11/28 12:50:54;;;;;;;;;;;;;;;;;;5013905;28;20388;-68
2023/11/28 12:53:22;;;;;;;;;;;;;;;;;;5017562;28;19953;-68
2023/11/28 12:55:49;;;;;;;;;;;;;;;;;;5007607;28;20297;-68
2023/11/28 12:58:21;;;;;;;;;;;;;;;;;;5007434;28;19929;-68
2023/11/28 13:00:48;;;;;;;;;;;;;;;;;;5011269;28;19969;-68
2023/11/28 13:03:15;;;;;;;;;;;;;;;;;;5010177;28;20477;-68
2023/11/28 13:05:42;;;;;;;;;;;;;;;;;;4996976;28;19926;-68
2023/11/28 13:08:09;;;;;;;;;;;;;;;;;;4995175;28;20462;-68
2023/11/28 13:10:36;;;;;;;;;;;;;;;;;;5007071;28;19947;-69
2023/11/28 13:13:04;;;;;;;;;;;;;;;;;;5009527;28;23159;-68
2023/11/28 13:15:31;;;;;;;;;;;;;;;;;;5008195;28;19975;-69
2023/11/28 13:17:58;;;;;;;;;;;;;;;;;;5014146;28;19929;-69
2023/11/28 13:20:25;;;;;;;;;;;;;;;;;;5001376;28;19944;-68
2023/11/28 13:22:52;;;;;;;;;;;;;;;;;;5002673;28;20037;-69
2023/11/28 13:25:19;;;;;;;;;;;;;;;;;;5000122;28;19930;-69
2023/11/28 13:27:46;;;;;;;;;;;;;;;;;;5011706;28;19925;-68
2023/11/28 13:30:15;;;;;;;;;;;;;;;;;;5011284;28;20020;-68
2023/11/28 13:32:43;;;;;;;;;;;;;;;;;;5011086;28;19932;-69
2023/11/28 13:35:11;;;;;;;;;;;;;;;;;;5012900;28;19932;-69
2023/11/28 13:37:38;;;;;;;;;;;;;;;;;;5012715;28;19933;-68
2023/11/28 13:40:05;;;;;;;;;;;;;;;;;;5004970;28;19932;-68
2023/11/28 13:42:35;;;;;;;;;;;;;;;;;;5009025;28;19979;-69
2023/11/28 13:45:02;;;;;;;;;;;;;;;;;;5012377;28;19987;-68
2023/11/28 13:47:30;;;;;;;;;;;;;;;;;;5012440;28;20027;-67
2023/11/28 13:49:57;;;;;;;;;;;;;;;;;;5012562;28;19925;-68
2023/11/28 13:52:24;;;;;;;;;;;;;;;;;;5011813;28;19929;-68
2023/11/28 13:54:53;;;;;;;;;;;;;;;;;;4992266;28;19932;-68
2023/11/28 13:57:20;;;;;;;;;;;;;;;;;;4990075;28;19981;-69
2023/11/28 13:59:47;;;;;;;;;;;;;;;;;;5003203;28;19926;-66
2023/11/28 14:02:14;;;;;;;;;;;;;;;;;;5005379;28;19996;-67
2023/11/28 14:04:41;;;;;;;;;;;;;;;;;;5011250;28;20381;-66
2023/11/28 14:07:08;;;;;;;;;;;;;;;;;;5014506;28;20368;-66
2023/11/28 14:09:35;;;;;;;;;;;;;;;;;;5008602;28;19976;-65
2023/11/28 14:12:02;;;;;;;;;;;;;;;;;;5011949;28;19964;-66
2023/11/28 14:14:29;;;;;;;;;;;;;;;;;;5015465;28;19937;-64
2023/11/28 14:16:56;;;;;;;;;;;;;;;;;;5017928;28;19926;-64
2023/11/28 14:19:25;;;;;;;;;;;;;;;;;;5017755;28;19925;-64
2023/11/28 14:21:52;;;;;;;;;;;;;;;;;;5027435;28;19926;-65
2023/11/28 14:24:19;;;;;;;;;;;;;;;;;;5014744;28;20459;-65
2023/11/28 14:26:46;;;;;;;;;;;;;;;;;;5010950;28;19980;-68
2023/11/28 14:29:13;;;;;;;;;;;;;;;;;;5009850;28;19973;-69
2023/11/28 14:31:40;;;;;;;;;;;;;;;;;;5022876;28;19926;-69
2023/11/28 14:34:07;;;;;;;;;;;;;;;;;;5015881;28;20016;-69
2023/11/28 14:36:34;;;;;;;;;;;;;;;;;;5002848;28;19948;-68
2023/11/28 14:39:01;;;;;;;;;;;;;;;;;;5004360;28;19933;-68
2023/11/28 14:41:28;;;;;;;;;;;;;;;;;;4998416;28;19926;-68
2023/11/28 14:43:55;;;;;;;;;;;;;;;;;;5016018;28;19926;-69
2023/11/28 14:46:23;;;;;;;;;;;;;;;;;;5007561;28;20012;-68
2023/11/28 14:48:50;;;;;;;;;;;;;;;;;;5001558;28;19965;-69
2023/11/28 14:51:17;;;;;;;;;;;;;;;;;;5010338;28;20441;-68
2023/11/28 14:53:44;;;;;;;;;;;;;;;;;;5010290;28;19926;-68
2023/11/28 14:56:12;;;;;;;;;;;;;;;;;;5012014;28;19933;-68
2023/11/28 14:58:39;;;;;;;;;;;;;;;;;;5013538;28;19965;-68
2023/11/28 15:01:06;;;;;;;;;;;;;;;;;;5023572;28;19930;-67
2023/11/28 15:03:33;;;;;;;;;;;;;;;;;;5011736;28;19995;-68
2023/11/28 15:06:03;;;;;;;;;;;;;;;;;;5023988;28;19936;-67
2023/11/28 15:08:30;;;;;;;;;;;;;;;;;;5022329;28;19929;-68
2023/11/28 15:10:58;;;;;;;;;;;;;;;;;;5020039;28;19972;-69
2023/11/28 15:13:25;;;;;;;;;;;;;;;;;;5027038;28;20383;-69
2023/11/28 15:15:52;;;;;;;;;;;;;;;;;;5033532;28;19995;-68
2023/11/28 15:18:19;;;;;;;;;;;;;;;;;;5014321;28;20217;-67
2023/11/28 15:20:46;;;;;;;;;;;;;;;;;;5007334;28;19932;-68
2023/11/28 15:23:13;;;;;;;;;;;;;;;;;;5017968;28;20266;-69
2023/11/28 15:25:41;;;;;;;;;;;;;;;;;;5014019;28;19934;-68
2023/11/28 15:28:14;;;;;;;;;;;;;;;;;;5006632;28;20398;-69
2023/11/28 15:30:41;;;;;;;;;;;;;;;;;;5008943;28;19941;-69
2023/11/28 15:33:08;;;;;;;;;;;;;;;;;;5007825;28;19970;-69
2023/11/28 15:35:35;;;;;;;;;;;;;;;;;;5006745;28;19926;-68
2023/11/28 15:38:02;;;;;;;;;;;;;;;;;;5009515;28;19925;-68
2023/11/28 15:40:30;;;;;;;;;;;;;;;;;;5011774;28;20448;-68
2023/11/28 15:42:58;;;;;;;;;;;;;;;;;;5008652;28;20741;-67
2023/11/28 15:45:25;;;;;;;;;;;;;;;;;;5007868;28;19979;-68
2023/11/28 15:47:52;;;;;;;;;;;;;;;;;;5005471;28;20725;-69
2023/11/28 15:50:19;;;;;;;;;;;;;;;;;;5004619;28;19933;-68
2023/11/28 15:52:47;;;;;;;;;;;;;;;;;;5010337;28;19926;-69
2023/11/28 15:55:14;;;;;;;;;;;;;;;;;;5010844;28;19925;-68
2023/11/28 15:57:41;;;;;;;;;;;;;;;;;;5010012;28;19934;-68
2023/11/28 16:00:09;;;;;;;;;;;;;;;;;;5007894;28;19930;-67
2023/11/28 16:02:36;;;;;;;;;;;;;;;;;;5008844;28;19925;-68
2023/11/28 16:05:03;;;;;;;;;;;;;;;;;;5010374;28;19988;-68
2023/11/28 16:07:31;;;;;;;;;;;;;;;;;;5009537;28;19934;-70
2023/11/28 16:10:00;;;;;;;;;;;;;;;;;;5004751;28;19925;-69
2023/11/28 16:12:27;;;;;;;;;;;;;;;;;;5010442;28;20356;-69
2023/11/28 16:14:54;;;;;;;;;;;;;;;;;;5006388;28;19925;-69
2023/11/28 16:17:21;;;;;;;;;;;;;;;;;;5010604;28;20016;-69
2023/11/28 16:19:49;;;;;;;;;;;;;;;;;;5008701;28;19933;-70
2023/11/28 16:22:16;;;;;;;;;;;;;;;;;;5008240;28;19975;-68
2023/11/28 16:24:43;;;;;;;;;;;;;;;;;;5014265;28;19969;-69
2023/11/28 16:27:10;;;;;;;;;;;;;;;;;;5011789;28;19949;-68
2023/11/28 16:29:37;;;;;;;;;;;;;;;;;;5012536;28;19929;-68
2023/11/28 16:32:04;;;;;;;;;;;;;;;;;;5008446;28;20038;-67
2023/11/28 16:34:31;;;;;;;;;;;;;;;;;;4998440;28;19948;-68
2023/11/28 16:36:59;;;;;;;;;;;;;;;;;;5009810;28;19933;-66
2023/11/28 16:39:26;;;;;;;;;;;;;;;;;;5002360;28;19925;-69
2023/11/28 16:41:53;;;;;;;;;;;;;;;;;;5011385;28;19934;-68
2023/11/28 16:44:20;;;;;;;;;;;;;;;;;;5012481;28;19980;-68
2023/11/28 16:46:49;;;;;;;;;;;;;;;;;;5007729;28;19980;-68